Pagrindinis puslapis
METAR-TAF:

METAR-TAF

Oro uostai :

Emmen, Šveicarija

platuma: 47-05-32N, ilguma: 8-18-16E, Aukštis: 426 m

Dabartinis oras

Ataskaita buvo paskelbta 20 minutes, ne 23:50 UTC
Ramus vėjas
Temperatūra 6°C
Drėgmė 81%
Slėgis 1017 hPa
Matomumas 10 km arba daugiau
Mažai debesys ne aukštis 8800 ft

METAR: LSME 282350Z AUTO 00000KT 9999NDV FEW088 06/03 Q1017 RMK

Laikas: 01:10 (00:10 UTC)


TAF: trūkstamas

Orai ataskaitas ir orų prognozės (METAR, TAF).

turimą stotys yra geltonos ir raudonos taškus žemėlapyje.

Perkelti pele per norėdami pamatyti stoties vardą.

Tada spustelėkite, norėdami matyti oro stebėjimo ir prognozės.

Norėdami pakeisti žemėlapį: spustelėkite ant žalios mygtukų su juodo kryžiaus žemyn,; žalią mygtuką su brūkšneliu, jei norite nutolinti; arba žalių rodyklių gretimoms žemėlapius.


METAR-TAF: